Time;durP1;ratioP1;P1;durP2;ratioP2;P2;SDS_P1;SDS_P2;PMS_P1;PMS_P2;Temp;Humidity;BMP_temperature;BMP_pressure;BME280_temperature;BME280_humidity;BME280_pressure;Samples;Min_cycle;Max_cycle;Signal;HPM_P1;HPM_P2
2021/10/27 00:00:14;;;;;;;4.30;3.87;;;5.20;99.90;;;;;;5056290;28;20444;-91
2021/10/27 00:02:41;;;;;;;5.13;3.53;;;;;;;;;;5055635;28;20482;-91
2021/10/27 00:05:12;;;;;;;5.30;4.37;;;;;;;;;;5052478;28;20435;-87
2021/10/27 00:07:39;;;;;;;4.70;3.77;;;;;;;;;;5052346;28;20851;-92
2021/10/27 00:10:07;;;;;;;4.70;3.57;;;;;;;;;;5053895;28;20938;-90
2021/10/27 00:12:34;;;;;;;5.83;3.70;;;;;;;;;;5051392;28;20434;-89
2021/10/27 00:15:02;;;;;;;8.63;3.93;;;;;;;;;;5053648;28;20490;-89
2021/10/27 00:17:30;;;;;;;5.53;4.00;;;;;;;;;;5055133;28;20450;-89
2021/10/27 00:19:57;;;;;;;7.07;4.00;;;;;;;;;;5052104;28;20497;-90
2021/10/27 00:22:24;;;;;;;6.40;4.27;;;;;;;;;;5055431;28;20796;-92
2021/10/27 00:24:51;;;;;;;6.40;4.30;;;;;;;;;;5055173;28;20438;-91
2021/10/27 00:27:18;;;;;;;4.87;4.10;;;;;;;;;;5062352;28;20470;-88
2021/10/27 00:29:45;;;;;;;7.83;3.87;;;;;;;;;;5054661;28;20473;-90
2021/10/27 00:32:14;;;;;;;4.93;4.23;;;;;;;;;;5055229;28;20450;-90
2021/10/27 00:34:41;;;;;;;6.80;4.73;;;;;;;;;;5050823;28;20474;-90
2021/10/27 00:37:08;;;;;;;6.10;4.50;;;;;;;;;;5052007;28;20486;-91
2021/10/27 00:39:36;;;;;;;6.30;4.20;;;;;;;;;;5054879;28;20450;-88
2021/10/27 00:42:03;;;;;;;5.80;4.23;;;;;;;;;;5054271;28;20458;-92
2021/10/27 00:44:31;;;;;;;5.40;4.07;;;;;;;;;;5054730;28;20431;-89
2021/10/27 00:47:01;;;;;;;6.10;4.20;;;4.80;99.90;;;;;;5059093;28;20454;-88
2021/10/27 00:49:31;;;;;;;7.27;4.73;;;4.80;99.90;;;;;;5057889;28;20455;-89
2021/10/27 00:51:58;;;;;;;4.90;3.90;;;4.80;99.90;;;;;;5050002;28;20454;-89
2021/10/27 00:54:26;;;;;;;4.60;3.90;;;;;;;;;;5054336;28;20474;-88
2021/10/27 00:56:54;;;;;;;6.53;3.93;;;4.70;99.90;;;;;;5054314;28;20462;-90
2021/10/27 00:59:22;;;;;;;4.90;4.40;;;;;;;;;;5054719;28;20439;-90
2021/10/27 01:01:49;;;;;;;4.90;4.00;;;;;;;;;;5054498;28;20466;-89
2021/10/27 01:04:17;;;;;;;8.43;5.00;;;;;;;;;;5054432;28;20459;-88
2021/10/27 01:06:46;;;;;;;6.83;4.10;;;4.80;99.90;;;;;;5051126;28;20453;-89
2021/10/27 01:09:14;;;;;;;5.80;4.60;;;;;;;;;;5051343;28;20451;-90
2021/10/27 01:11:41;;;;;;;4.87;4.37;;;;;;;;;;5050733;28;20458;-89
2021/10/27 01:14:09;;;;;;;8.00;4.27;;;4.70;99.90;;;;;;5047691;28;20454;-90
2021/10/27 01:16:36;;;;;;;6.67;4.60;;;;;;;;;;5054332;28;20454;-89
2021/10/27 01:19:04;;;;;;;7.60;5.13;;;;;;;;;;5055087;28;20466;-91
2021/10/27 01:21:32;;;;;;;6.63;4.67;;;;;;;;;;5054037;28;20469;-89
2021/10/27 01:24:00;;;;;;;8.20;4.93;;;;;;;;;;5054031;28;20426;-90
2021/10/27 01:26:27;;;;;;;5.87;4.93;;;;;;;;;;5050798;28;20439;-90
2021/10/27 01:28:54;;;;;;;5.73;4.70;;;;;;;;;;5052726;28;20511;-89
2021/10/27 01:31:22;;;;;;;8.27;4.83;;;4.70;99.90;;;;;;5054323;28;20945;-91
2021/10/27 01:33:50;;;;;;;7.20;5.53;;;;;;;;;;5050987;28;20464;-90
2021/10/27 01:36:19;;;;;;;6.60;5.37;;;4.70;99.90;;;;;;5053578;28;20948;-91
2021/10/27 01:38:48;;;;;;;5.47;4.87;;;;;;;;;;5047516;28;20435;-90
2021/10/27 01:41:15;;;;;;;6.77;5.30;;;4.60;99.90;;;;;;5053392;28;20438;-90
2021/10/27 01:43:51;;;;;;;10.40;5.10;;;4.60;99.90;;;;;;5050226;28;20478;-90
2021/10/27 01:46:26;;;;;;;5.43;4.70;;;4.50;99.90;;;;;;5057432;28;20546;-91
2021/10/27 01:48:53;;;;;;;5.47;4.87;;;;;;;;;;5054606;28;20445;-90
2021/10/27 01:51:20;;;;;;;6.20;5.00;;;;;;;;;;5057981;28;20442;-90
2021/10/27 01:53:48;;;;;;;6.00;4.30;;;;;;;;;;5058057;28;20462;-91
2021/10/27 01:56:15;;;;;;;6.90;5.30;;;;;;;;;;5068086;28;20478;-90
2021/10/27 01:58:42;;;;;;;7.60;5.00;;;;;;;;;;5060149;28;20435;-88
2021/10/27 02:01:10;;;;;;;6.80;4.40;;;;;;;;;;5057759;28;20453;-89
2021/10/27 02:03:37;;;;;;;7.30;4.93;;;;;;;;;;5057973;28;20473;-89
2021/10/27 02:06:04;;;;;;;5.00;4.50;;;;;;;;;;5057931;28;20458;-90
2021/10/27 02:08:31;;;;;;;8.80;4.63;;;;;;;;;;5054607;28;20461;-89
2021/10/27 02:10:59;;;;;;;5.63;4.67;;;;;;;;;;5053808;28;20481;-89
2021/10/27 02:13:27;;;;;;;6.37;4.63;;;;;;;;;;5057666;28;20442;-90
2021/10/27 02:15:54;;;;;;;6.10;5.33;;;;;;;;;;5054126;28;20509;-89
2021/10/27 02:18:21;;;;;;;5.53;4.33;;;;;;;;;;5055658;28;20455;-88
2021/10/27 02:20:48;;;;;;;7.33;5.40;;;;;;;;;;5057276;28;20482;-91
2021/10/27 02:23:16;;;;;;;5.13;4.37;;;4.30;99.90;;;;;;5057527;28;20458;-90
2021/10/27 02:25:43;;;;;;;6.30;5.40;;;;;;;;;;5053799;28;20941;-89
2021/10/27 02:28:12;;;;;;;8.20;5.00;;;;;;;;;;5054111;28;20456;-89
2021/10/27 02:30:39;;;;;;;5.70;5.10;;;;;;;;;;5057578;28;20438;-88
2021/10/27 02:33:06;;;;;;;6.70;4.67;;;;;;;;;;5053778;28;20427;-90
2021/10/27 02:35:33;;;;;;;5.23;4.57;;;;;;;;;;5057152;28;20494;-89
2021/10/27 02:38:00;;;;;;;6.90;6.20;;;;;;;;;;5053916;28;21076;-90
2021/10/27 02:40:28;;;;;;;7.30;5.70;;;;;;;;;;5056503;28;20434;-88
2021/10/27 02:42:55;;;;;;;8.23;5.50;;;;;;;;;;5056687;28;20447;-89
2021/10/27 02:45:24;;;;;;;8.07;6.37;;;;;;;;;;5053671;28;20450;-89
2021/10/27 02:47:51;;;;;;;6.60;5.80;;;;;;;;;;5057080;28;20454;-90
2021/10/27 02:50:19;;;;;;;7.20;5.63;;;;;;;;;;5053738;28;20500;-88
2021/10/27 02:52:48;;;;;;;7.23;5.80;;;;;;;;;;5056910;28;20862;-90
2021/10/27 02:55:16;;;;;;;6.47;5.47;;;4.50;99.90;;;;;;5056028;28;20482;-90
2021/10/27 02:57:43;;;;;;;7.23;5.70;;;;;;;;;;5056825;28;20458;-89
2021/10/27 03:00:11;;;;;;;7.30;5.23;;;4.60;99.90;;;;;;5060025;28;20441;-88
2021/10/27 03:02:39;;;;;;;6.40;5.70;;;;;;;;;;5061610;28;20457;-90
2021/10/27 03:05:08;;;;;;;8.37;5.37;;;4.40;99.90;;;;;;5055022;28;20953;-90
2021/10/27 03:07:35;;;;;;;7.20;5.03;;;;;;;;;;5056684;28;20454;-89
2021/10/27 03:10:02;;;;;;;6.57;5.07;;;;;;;;;;5055736;28;20458;-89
2021/10/27 03:12:29;;;;;;;7.93;5.30;;;;;;;;;;5056629;28;20450;-89
2021/10/27 03:14:56;;;;;;;6.17;5.43;;;;;;;;;;5056407;28;20478;-88
2021/10/27 03:17:23;;;;;;;5.57;5.00;;;;;;;;;;5053571;28;20443;-89
2021/10/27 03:19:52;;;;;;;5.27;4.70;;;;;;;;;;5056330;28;20474;-88
2021/10/27 03:22:19;;;;;;;8.47;5.50;;;;;;;;;;5056886;28;20431;-90
2021/10/27 03:24:47;;;;;;;8.00;5.30;;;;;;;;;;5063674;28;20450;-89
2021/10/27 03:27:14;;;;;;;6.37;4.90;;;;;;;;;;5057304;28;20442;-89
2021/10/27 03:29:41;;;;;;;7.60;5.40;;;;;;;;;;5053849;28;20462;-90
2021/10/27 03:32:09;;;;;;;8.70;5.23;;;4.10;99.90;;;;;;5056320;28;20454;-90
2021/10/27 03:34:37;;;;;;;6.70;4.97;;;;;;;;;;5055944;28;20461;-89
2021/10/27 03:37:06;;;;;;;9.73;6.57;;;;;;;;;;5055814;28;20490;-88
2021/10/27 03:39:33;;;;;;;6.93;4.73;;;;;;;;;;5056027;28;20439;-89
2021/10/27 03:42:00;;;;;;;6.53;5.37;;;;;;;;;;5055147;28;20451;-89
2021/10/27 03:44:27;;;;;;;6.80;5.77;;;;;;;;;;5056076;28;20443;-92
2021/10/27 03:46:54;;;;;;;8.47;6.40;;;;;;;;;;5053262;28;20451;-91
2021/10/27 03:49:21;;;;;;;7.43;6.50;;;;;;;;;;5053921;28;20454;-92
2021/10/27 03:51:49;;;;;;;6.90;5.90;;;;;;;;;;5052713;28;20818;-90
2021/10/27 03:54:17;;;;;;;7.33;5.70;;;;;;;;;;5055695;28;20458;-89
2021/10/27 03:56:44;;;;;;;6.70;5.77;;;;;;;;;;5052080;28;20470;-89
2021/10/27 03:59:12;;;;;;;8.80;5.90;;;;;;;;;;5048884;28;20910;-91
2021/10/27 04:01:39;;;;;;;6.87;6.17;;;;;;;;;;5055776;28;20545;-91
2021/10/27 04:04:06;;;;;;;8.47;5.80;;;;;;;;;;5055696;28;20487;-89
2021/10/27 04:06:33;;;;;;;9.10;5.80;;;;;;;;;;5055735;28;20443;-89
2021/10/27 04:09:00;;;;;;;8.43;6.40;;;;;;;;;;5054497;28;20821;-90
2021/10/27 04:11:28;;;;;;;7.67;5.50;;;3.90;99.90;;;;;;5053068;28;20463;-91
2021/10/27 04:13:55;;;;;;;7.97;6.57;;;;;;;;;;5055042;28;20454;-89
2021/10/27 04:16:22;;;;;;;10.10;5.83;;;;;;;;;;5055686;28;20486;-90
2021/10/27 04:18:49;;;;;;;8.43;6.37;;;;;;;;;;5055419;28;20444;-91
2021/10/27 04:21:17;;;;;;;10.10;6.57;;;;;;;;;;5071107;28;20496;-88
2021/10/27 04:23:44;;;;;;;7.30;6.00;;;;;;;;;;5075065;28;20473;-90
2021/10/27 04:26:11;;;;;;;7.40;4.53;;;;;;;;;;5075299;28;20457;-90
2021/10/27 04:28:39;;;;;;;6.83;5.57;;;;;;;;;;5075494;28;20457;-90
2021/10/27 04:31:07;;;;;;;7.80;4.73;;;;;;;;;;5074975;28;20457;-90
2021/10/27 04:33:34;;;;;;;7.27;5.50;;;;;;;;;;5075205;28;20815;-91
2021/10/27 04:36:01;;;;;;;6.60;5.20;;;;;;;;;;5074986;28;20512;-90
2021/10/27 04:38:28;;;;;;;11.43;6.43;;;;;;;;;;5075400;28;20891;-92
2021/10/27 04:40:56;;;;;;;7.10;5.73;;;;;;;;;;5074565;28;20442;-90
2021/10/27 04:43:23;;;;;;;7.20;5.77;;;;;;;;;;5074665;28;20438;-91
2021/10/27 04:45:52;;;;;;;11.60;5.83;;;3.60;99.90;;;;;;5074433;28;20445;-90
2021/10/27 04:48:19;;;;;;;6.77;6.00;;;;;;;;;;5072367;28;20438;-88
2021/10/27 04:50:46;;;;;;;8.47;5.90;;;;;;;;;;5074745;28;20442;-90
2021/10/27 04:53:16;;;;;;;6.83;5.93;;;3.60;99.90;;;;;;5083421;28;20445;-90
2021/10/27 04:55:43;;;;;;;8.83;6.40;;;;;;;;;;5073931;28;20509;-92
2021/10/27 04:58:10;;;;;;;6.20;5.60;;;;;;;;;;5074190;28;20480;-91
2021/10/27 05:00:37;;;;;;;8.10;6.10;;;;;;;;;;5074429;28;20438;-90
2021/10/27 05:03:06;;;;;;;6.20;5.27;;;;;;;;;;5075743;28;20437;-92
2021/10/27 05:05:36;;;;;;;9.97;6.57;;;;;;;;;;5074975;28;20438;-90
2021/10/27 05:08:04;;;;;;;7.70;6.70;;;;;;;;;;5074649;28;20445;-91
2021/10/27 05:10:31;;;;;;;9.37;7.70;;;;;;;;;;5073155;28;20448;-90
2021/10/27 05:12:58;;;;;;;10.80;7.70;;;;;;;;;;5074322;28;20793;-89
2021/10/27 05:15:25;;;;;;;7.00;6.30;;;;;;;;;;5080308;28;20476;-90
2021/10/27 05:17:52;;;;;;;8.07;6.77;;;;;;;;;;5074880;28;20461;-91
2021/10/27 05:20:21;;;;;;;9.53;6.40;;;3.40;99.90;;;;;;5064159;28;20486;-89
2021/10/27 05:22:48;;;;;;;11.00;6.37;;;;;;;;;;5050310;28;20799;-90
2021/10/27 05:25:15;;;;;;;8.40;6.90;;;;;;;;;;5050483;28;20443;-90
2021/10/27 05:27:42;;;;;;;9.73;5.53;;;;;;;;;;5054583;28;20834;-90
2021/10/27 05:30:09;;;;;;;7.97;6.30;;;;;;;;;;5054248;28;20463;-89
2021/10/27 05:32:37;;;;;;;7.37;5.80;;;;;;;;;;5052654;28;20485;-93
2021/10/27 05:35:04;;;;;;;7.47;6.23;;;;;;;;;;5051213;28;20473;-91
2021/10/27 05:37:32;;;;;;;9.40;6.57;;;3.50;99.90;;;;;;5051298;28;20528;-91
2021/10/27 05:40:00;;;;;;;10.40;6.83;;;;;;;;;;5049212;28;20430;-91
2021/10/27 05:42:29;;;;;;;10.20;6.40;;;;;;;;;;5047369;28;20931;-90
2021/10/27 05:44:57;;;;;;;14.13;7.17;;;;;;;;;;5054395;28;20801;-91
2021/10/27 05:47:25;;;;;;;9.13;6.80;;;;;;;;;;5054872;28;20438;-92
2021/10/27 05:49:54;;;;;;;8.93;6.83;;;;;;;;;;5056215;28;20450;-89
2021/10/27 05:55:22;;;;;;;9.93;7.77;;;3.50;99.90;;;;;;5053789;28;20438;-89
2021/10/27 05:57:49;;;;;;;10.10;7.57;;;;;;;;;;5054204;28;20536;-90
2021/10/27 06:00:17;;;;;;;12.83;7.87;;;;;;;;;;5059744;28;20932;-89
2021/10/27 06:02:45;;;;;;;11.30;8.30;;;;;;;;;;5055436;28;20438;-93
2021/10/27 06:05:12;;;;;;;13.73;7.60;;;;;;;;;;5069054;28;20446;-91
2021/10/27 06:07:39;;;;;;;11.30;7.90;;;;;;;;;;5075057;28;20446;-90
2021/10/27 06:10:08;;;;;;;9.87;7.63;;;;;;;;;;5067012;28;20430;-93
2021/10/27 06:12:35;;;;;;;14.10;7.57;;;;;;;;;;5072344;28;20503;-91
2021/10/27 06:15:02;;;;;;;11.80;8.40;;;;;;;;;;5074370;28;20457;-92
2021/10/27 06:17:30;;;;;;;12.10;8.23;;;;;;;;;;5074074;28;20474;-92
2021/10/27 06:19:57;;;;;;;10.20;8.37;;;;;;;;;;5075943;28;20485;-90
2021/10/27 06:22:24;;;;;;;13.63;8.93;;;;;;;;;;5083709;28;20450;-91
2021/10/27 06:24:53;;;;;;;13.07;9.67;;;;;;;;;;5076220;28;20460;-93
2021/10/27 06:27:22;;;;;;;21.40;9.70;;;;;;;;;;5070074;28;20594;-91
2021/10/27 06:29:54;;;;;;;12.73;8.53;;;;;;;;;;5073982;28;20469;-91
2021/10/27 06:32:30;;;;;;;10.87;9.50;;;;;;;;;;5072965;28;20502;-94
2021/10/27 06:35:00;;;;;;;12.90;9.07;;;;;;;;;;5077747;28;20437;-92
2021/10/27 06:46:12;;;;;;;15.20;10.37;;;;;;;;;;5078383;28;20456;-93
2021/10/27 06:48:39;;;;;;;17.20;10.97;;;;;;;;;;5075844;28;20487;-90
2021/10/27 06:51:06;;;;;;;15.10;10.00;;;;;;;;;;5084923;28;20448;-89
2021/10/27 06:53:33;;;;;;;14.90;10.60;;;;;;;;;;5079063;28;20449;-88
2021/10/27 06:56:00;;;;;;;16.90;10.80;;;;;;;;;;5072762;28;20450;-89
2021/10/27 06:58:31;;;;;;;12.13;10.83;;;5.80;99.90;;;;;;5076474;28;20449;-89
2021/10/27 07:01:00;;;;;;;19.20;9.70;;;;;;;;;;5076084;28;20448;-89
2021/10/27 07:03:46;;;;;;;18.33;11.67;;;;;;;;;;5075756;28;20457;-91
2021/10/27 07:17:15;;;;;;;13.23;10.20;;;;;;;;;;5080925;28;20488;-89
2021/10/27 07:19:42;;;;;;;14.10;9.20;;;;;;;;;;5080816;28;20530;-87
2021/10/27 07:22:11;;;;;;;15.73;10.17;;;;;;;;;;5078876;28;20445;-89
2021/10/27 07:24:38;;;;;;;13.80;9.97;;;;;;;;;;5079521;28;20456;-89
2021/10/27 07:27:07;;;;;;;15.90;11.43;;;;;;;;;;5080262;28;20465;-89
2021/10/27 07:29:36;;;;;;;12.57;10.47;;;;;;;;;;5076501;28;20485;-90
2021/10/27 07:32:05;;;;;;;12.40;9.60;;;;;;;;;;5077171;28;20491;-95
2021/10/27 07:34:35;;;;;;;13.20;8.70;;;;;;;;;;5072570;28;20457;-91
2021/10/27 07:40:00;;;;;;;9.80;7.53;;;;;;;;;;5074339;28;20542;-88
2021/10/27 07:42:28;;;;;;;12.70;7.73;;;;;;;;;;5075926;28;20472;-88
2021/10/27 07:44:56;;;;;;;8.20;6.80;;;11.20;99.90;;;;;;5072953;28;20484;-91
2021/10/27 07:47:23;;;;;;;7.80;6.57;;;;;;;;;;5076092;28;20440;-91
2021/10/27 07:49:51;;;;;;;6.90;6.20;;;;;;;;;;5073609;28;20803;-92
2021/10/27 07:52:18;;;;;;;7.47;5.90;;;;;;;;;;5079153;28;20441;-91
2021/10/27 07:54:46;;;;;;;7.40;6.40;;;;;;;;;;5056356;28;20446;-93
2021/10/27 07:57:14;;;;;;;10.70;6.03;;;;;;;;;;5075401;28;20883;-93
2021/10/27 07:59:41;;;;;;;6.30;5.60;;;;;;;;;;5071851;28;20435;-91
2021/10/27 08:02:10;;;;;;;7.63;5.90;;;;;;;;;;5074726;28;20457;-93
2021/10/27 08:04:37;;;;;;;8.60;6.10;;;;;;;;;;5068923;28;20457;-90
2021/10/27 08:07:05;;;;;;;7.60;5.37;;;;;;;;;;5055531;28;20473;-92
2021/10/27 08:09:32;;;;;;;7.07;5.40;;;;;;;;;;5054527;28;20447;-92
2021/10/27 08:11:59;;;;;;;5.70;5.20;;;;;;;;;;5059174;28;20439;-92
2021/10/27 08:14:26;;;;;;;7.80;5.20;;;;;;;;;;5056977;28;20793;-89
2021/10/27 08:16:53;;;;;;;6.10;5.50;;;;;;;;;;5051822;28;20478;-88
2021/10/27 08:19:22;;;;;;;5.37;4.87;;;;;;;;;;5052245;28;20442;-90
2021/10/27 08:21:49;;;;;;;6.60;5.87;;;;;;;;;;5078236;28;20449;-90
2021/10/27 08:24:22;;;;;;;6.50;5.10;;;;;;;;;;5078051;28;20450;-90
2021/10/27 08:26:53;;;;;;;4.73;3.87;;;;;;;;;;5078902;28;20458;-90
2021/10/27 08:29:25;;;;;;;10.27;4.90;;;;;;;;;;5085719;22;20477;-91
2021/10/27 08:31:57;;;;;;;6.57;4.93;;;;;;;;;;5071305;28;21015;-91
2021/10/27 08:34:37;;;;;;;11.33;4.50;;;;;;;;;;5074247;28;20450;-91
2021/10/27 08:37:05;;;;;;;4.40;4.00;;;;;;;;;;5075177;28;21029;-93
2021/10/27 08:39:32;;;;;;;5.17;4.37;;;;;;;;;;5075251;28;20449;-88
2021/10/27 08:42:03;;;;;;;4.93;4.30;;;;;;;;;;5053906;28;20514;-92
2021/10/27 08:44:30;;;;;;;5.63;4.50;;;;;;;;;;5056868;28;20492;-88
2021/10/27 08:46:57;;;;;;;5.30;4.47;;;;;;;;;;5056147;28;20455;-91
2021/10/27 08:49:27;;;;;;;5.30;4.80;;;14.60;99.90;;;;;;5056926;28;20445;-89
2021/10/27 08:51:57;;;;;;;6.23;4.20;;;15.20;99.90;;;;;;5054755;28;20435;-91
2021/10/27 08:54:24;;;;;;;5.87;5.10;;;;;;;;;;5051197;28;20661;-92
2021/10/27 08:56:54;;;;;;;5.73;4.23;;;;;;;;;;5052744;28;20474;-89
2021/10/27 08:59:24;;;;;;;4.93;4.23;;;;;;;;;;5053933;28;20822;-90
2021/10/27 09:02:16;;;;;;;7.47;4.43;;;;;;;;;;5053729;28;20512;-90
2021/10/27 09:05:04;;;;;;;4.97;4.33;;;;;;;;;;5056269;28;20902;-90
2021/10/27 09:07:45;;;;;;;6.53;4.60;;;;;;;;;;5054736;28;20439;-90
2021/10/27 09:16:15;;;;;;;6.63;4.60;;;;;;;;;;5056059;28;20445;-92
2021/10/27 09:35:44;;;;;;;5.00;4.30;;;;;;;;;;5060592;28;20425;-91
2021/10/27 09:38:38;;;;;;;4.10;3.70;;;;;;;;;;5056038;28;20524;-90
2021/10/27 10:04:07;;;;;;;6.00;4.13;;;18.80;99.90;;;;;;5036135;28;20445;-89
2021/10/27 10:06:42;;;;;;;3.83;3.53;;;18.90;99.90;;;;;;5059428;28;20446;-90
2021/10/27 10:09:09;;;;;;;5.90;3.83;;;;;;;;;;5065591;28;20449;-92
2021/10/27 10:11:38;;;;;;;4.00;3.50;;;18.30;99.90;;;;;;5065528;28;20882;-89
2021/10/27 10:14:08;;;;;;;4.77;4.27;;;17.80;99.90;;;;;;5076120;28;20465;-89
2021/10/27 10:16:40;;;;;;;4.07;3.63;;;17.90;99.90;;;;;;5081384;28;20433;-90
2021/10/27 10:19:12;;;;;;;5.40;4.00;;;16.90;99.90;;;;;;5080796;28;20964;-90
2021/10/27 10:21:42;;;;;;;5.33;4.00;;;17.20;99.90;;;;;;5081486;28;20960;-90
2021/10/27 10:24:37;;;;;;;4.00;3.30;;;17.60;99.90;;;;;;5084300;28;20823;-90
2021/10/27 10:27:11;;;;;;;6.50;2.90;;;18.10;99.90;;;;;;5079873;28;20445;-92
2021/10/27 10:29:44;;;;;;;2.93;2.70;;;;;;;;;;5075405;28;20477;-91
2021/10/27 10:32:32;;;;;;;3.10;2.80;;;18.80;99.60;;;;;;5079225;28;20487;-90
2021/10/27 10:35:04;;;;;;;3.70;2.70;;;18.40;99.40;;;;;;5080839;28;20523;-91
2021/10/27 10:37:36;;;;;;;2.73;2.07;;;18.60;99.40;;;;;;5084841;28;20487;-89
2021/10/27 10:40:59;;;;;;;2.67;2.40;;;17.40;99.90;;;;;;5078548;28;20445;-88
2021/10/27 11:25:00;;;;;;;5.50;4.83;;;;;;;;;;5080245;28;20414;-89
2021/10/27 11:38:38;;;;;;;6.43;5.20;;;18.10;99.90;;;;;;5085241;28;20492;-92
2021/10/27 11:41:16;;;;;;;8.43;5.10;;;;;;;;;;5085348;28;20453;-92
2021/10/27 11:46:44;;;;;;;7.17;4.50;;;19.20;99.90;;;;;;5087487;28;20448;-90
2021/10/27 11:49:14;;;;;;;6.57;4.83;;;;;;;;;;5097335;22;20555;-91
2021/10/27 11:51:41;;;;;;;6.77;6.07;;;;;;;;;;5108182;28;20467;-89
2021/10/27 11:54:12;;;;;;;10.63;5.53;;;19.00;99.90;;;;;;5105904;28;20445;-91
2021/10/27 11:56:39;;;;;;;10.07;5.23;;;;;;;;;;5101714;28;20460;-94
2021/10/27 11:59:06;;;;;;;6.10;5.50;;;;;;;;;;5101627;28;20488;-91
2021/10/27 12:01:36;;;;;;;7.00;5.23;;;18.70;99.90;;;;;;5108678;28;20449;-87
2021/10/27 12:04:06;;;;;;;7.70;5.70;;;18.80;99.90;;;;;;5101350;28;20986;-90
2021/10/27 12:06:39;;;;;;;7.10;5.23;;;18.70;99.90;;;;;;5098975;28;20449;-93
2021/10/27 12:12:18;;;;;;;6.93;5.27;;;19.20;99.30;;;;;;5101862;28;20449;-91
2021/10/27 12:15:20;;;;;;;6.80;5.00;;;18.80;99.60;;;;;;5097061;28;20502;-93
2021/10/27 12:18:00;;;;;;;6.97;4.60;;;18.20;99.90;;;;;;5091971;28;20507;-89
2021/10/27 12:20:40;;;;;;;5.60;4.97;;;17.50;99.90;;;;;;5077637;28;20481;-88
2021/10/27 12:23:17;;;;;;;6.30;4.37;;;18.20;99.90;;;;;;5075779;28;20536;-89
2021/10/27 12:25:44;;;;;;;5.23;4.20;;;;;;;;;;5075974;28;20532;-89
2021/10/27 12:28:23;;;;;;;6.03;4.60;;;18.50;99.90;;;;;;5079413;28;20924;-89
2021/10/27 12:30:50;;;;;;;9.60;4.80;;;;;;;;;;5079515;28;20446;-89
2021/10/27 12:33:17;;;;;;;8.47;4.70;;;;;;;;;;5087113;28;20441;-90
2021/10/27 12:35:47;;;;;;;6.13;4.67;;;;;;;;;;5081698;28;20458;-89
2021/10/27 12:38:19;;;;;;;5.80;3.70;;;18.40;98.40;;;;;;5081902;28;20493;-90
2021/10/27 12:40:48;;;;;;;8.27;4.00;;;;;;;;;;5080197;28;20448;-90
2021/10/27 12:43:16;;;;;;;5.40;4.33;;;18.80;98.30;;;;;;5084601;28;20438;-89
2021/10/27 12:45:46;;;;;;;6.63;3.60;;;19.70;98.20;;;;;;5077896;28;20464;-88
2021/10/27 12:48:17;;;;;;;7.27;4.80;;;19.80;97.00;;;;;;5043484;28;20483;-88
2021/10/27 12:50:55;;;;;;;7.57;3.57;;;19.70;96.80;;;;;;5077322;28;20472;-88
2021/10/27 12:53:36;;;;;;;11.03;4.87;;;19.80;97.20;;;;;;5086535;28;20528;-94
2021/10/27 12:56:09;;;;;;;5.07;4.00;;;19.90;95.90;;;;;;5099413;28;20448;-88
2021/10/27 12:58:45;;;;;;;6.50;5.13;;;19.70;96.20;;;;;;5065303;28;20499;-93
2021/10/27 13:01:26;;;;;;;5.40;3.77;;;19.90;96.90;;;;;;5099566;28;20436;-90
2021/10/27 13:06:59;;;;;;;3.57;3.27;;;19.70;96.80;;;;;;5144356;27;20598;-87
2021/10/27 13:09:36;;;;;;;4.40;3.37;;;;;;;;;;5143298;27;20876;-88
2021/10/27 13:23:26;;;;;;;3.37;2.17;;;18.90;93.90;;;;;;5136149;27;20516;-88
2021/10/27 13:31:20;;;;;;;3.07;1.93;;;19.90;92.10;;;;;;5082262;28;20814;-88
2021/10/27 13:33:48;;;;;;;3.93;1.60;;;;;;;;;;5134062;27;20438;-89
2021/10/27 13:36:17;;;;;;;2.07;1.40;;;19.90;91.90;;;;;;5136063;27;20447;-88
2021/10/27 13:38:46;;;;;;;3.23;1.97;;;20.10;91.50;;;;;;5133400;27;20558;-88
2021/10/27 13:41:13;;;;;;;4.47;1.87;;;;;;;;;;5132694;28;20446;-88
2021/10/27 13:43:47;;;;;;;1.50;1.40;;;20.10;91.60;;;;;;5134032;27;20467;-89
2021/10/27 13:46:30;;;;;;;2.10;1.20;;;;;;;;;;5123095;28;20487;-87
2021/10/27 14:08:10;;;;;;;3.13;2.10;;;;;;;;;;5130130;27;20450;-92
2021/10/27 14:10:44;;;;;;;4.23;2.63;;;20.70;92.10;;;;;;5133929;27;20447;-88
2021/10/27 14:13:19;;;;;;;3.90;2.37;;;;;;;;;;5133007;27;21052;-88
2021/10/27 14:16:11;;;;;;;4.10;2.83;;;;;;;;;;5137135;28;20503;-88
2021/10/27 14:40:53;;;;;;;4.03;3.63;;;;;;;;;;5117377;28;21011;-89
2021/10/27 15:21:49;;;;;;;9.43;4.47;;;;;;;;;;5068182;28;20426;-90
2021/10/27 15:30:22;;;;;;;4.70;4.30;;;;;;;;;;5054532;28;20434;-91
2021/10/27 15:33:04;;;;;;;8.80;4.97;;;16.10;99.90;;;;;;5054826;28;20772;-89
2021/10/27 15:41:09;;;;;;;13.53;4.97;;;;;;;;;;5038200;28;20811;-93
2021/10/27 15:43:42;;;;;;;7.17;5.10;;;;;;;;;;5055691;28;20534;-91
2021/10/27 15:51:46;;;;;;;7.60;5.27;;;;;;;;;;5054963;28;20429;-92
2021/10/27 15:54:15;;;;;;;8.17;5.90;;;14.30;99.90;;;;;;5054761;28;20844;-89
2021/10/27 15:56:43;;;;;;;7.83;4.80;;;14.10;99.90;;;;;;5053955;28;20457;-88
2021/10/27 15:59:11;;;;;;;7.47;4.90;;;;;;;;;;5020536;28;20442;-91
2021/10/27 16:01:38;;;;;;;10.27;5.73;;;;;;;;;;5055860;28;20455;-90
2021/10/27 16:04:06;;;;;;;5.33;4.83;;;13.60;99.90;;;;;;5055945;28;20462;-89
2021/10/27 16:06:39;;;;;;;7.17;6.27;;;;;;;;;;5054901;28;20497;-91
2021/10/27 16:09:08;;;;;;;6.87;5.83;;;;;;;;;;5055099;28;20926;-91
2021/10/27 16:11:36;;;;;;;7.87;6.67;;;;;;;;;;5052882;28;21053;-91
2021/10/27 16:14:03;;;;;;;8.20;5.90;;;;;;;;;;5055358;28;20454;-92
2021/10/27 16:16:30;;;;;;;4.90;4.43;;;;;;;;;;5061019;28;20549;-90
2021/10/27 16:18:58;;;;;;;5.77;4.70;;;;;;;;;;5055814;28;20454;-87
2021/10/27 16:21:26;;;;;;;7.60;4.93;;;12.00;99.90;;;;;;5053495;28;20824;-87
2021/10/27 16:23:53;;;;;;;7.00;4.60;;;;;;;;;;5053993;28;20451;-92
2021/10/27 16:26:21;;;;;;;7.37;5.10;;;;;;;;;;5052993;28;20497;-89
2021/10/27 16:28:49;;;;;;;4.63;4.23;;;;;;;;;;5053956;28;20501;-87
2021/10/27 16:31:16;;;;;;;5.00;4.30;;;;;;;;;;5053449;28;20450;-87
2021/10/27 16:33:45;;;;;;;7.30;4.00;;;;;;;;;;5064964;28;20455;-92
2021/10/27 16:36:13;;;;;;;5.47;3.73;;;11.20;99.90;;;;;;5055598;28;20454;-87
2021/10/27 16:38:45;;;;;;;4.90;3.70;;;11.10;99.90;;;;;;5053800;28;20443;-88
2021/10/27 16:41:12;;;;;;;6.70;4.37;;;;;;;;;;5052101;28;20462;-88
2021/10/27 16:43:41;;;;;;;7.67;3.93;;;;;;;;;;5053259;28;20450;-86
2021/10/27 16:46:08;;;;;;;9.30;4.17;;;;;;;;;;5056646;28;21148;-88
2021/10/27 16:48:36;;;;;;;6.60;4.47;;;;;;;;;;5056593;28;20481;-92
2021/10/27 16:51:03;;;;;;;13.77;4.73;;;;;;;;;;5054434;28;20473;-90
2021/10/27 16:53:30;;;;;;;11.73;4.57;;;;;;;;;;5053202;28;20865;-89
2021/10/27 16:55:58;;;;;;;7.50;3.60;;;10.50;99.90;;;;;;5052097;28;20459;-87
2021/10/27 16:58:26;;;;;;;7.20;4.23;;;;;;;;;;5053132;28;20541;-87
2021/10/27 17:00:53;;;;;;;8.33;4.53;;;;;;;;;;5054373;28;20482;-89
2021/10/27 17:03:20;;;;;;;6.20;3.70;;;;;;;;;;5053086;28;20447;-88
2021/10/27 17:05:47;;;;;;;8.53;4.63;;;;;;;;;;5053175;28;20486;-91
2021/10/27 17:08:17;;;;;;;9.53;4.90;;;;;;;;;;5053116;28;20474;-88
2021/10/27 17:10:45;;;;;;;7.27;4.70;;;9.90;99.90;;;;;;5051932;28;20446;-88
2021/10/27 17:13:13;;;;;;;6.77;4.50;;;9.90;99.90;;;;;;5052639;28;20457;-88
2021/10/27 17:15:40;;;;;;;12.53;5.13;;;;;;;;;;5053097;28;20544;-89
2021/10/27 17:18:08;;;;;;;8.20;4.60;;;;;;;;;;5052773;28;20985;-89
2021/10/27 17:20:35;;;;;;;7.70;4.53;;;;;;;;;;5051850;28;20451;-89
2021/10/27 17:23:02;;;;;;;7.90;4.40;;;;;;;;;;5053064;28;20434;-89
2021/10/27 17:25:30;;;;;;;5.70;3.53;;;9.50;99.90;;;;;;5051434;28;20446;-91
2021/10/27 17:27:57;;;;;;;8.47;3.83;;;;;;;;;;5053191;28;20553;-88
2021/10/27 17:30:27;;;;;;;7.67;4.17;;;9.40;99.90;;;;;;5053653;28;20465;-90
2021/10/27 17:32:58;;;;;;;9.87;4.10;;;;;;;;;;5053003;28;20481;-90
2021/10/27 17:35:25;;;;;;;15.47;9.10;;;;;;;;;;5052500;28;20831;-87
2021/10/27 17:37:53;;;;;;;14.37;9.23;;;;;;;;;;5052700;28;20482;-89
2021/10/27 17:40:26;;;;;;;16.50;7.93;;;9.20;99.90;;;;;;5048240;28;20431;-87
2021/10/27 17:42:53;;;;;;;14.67;8.93;;;;;;;;;;5052555;28;20454;-89
2021/10/27 17:45:22;;;;;;;10.70;8.40;;;;;;;;;;5052690;28;20854;-89
2021/10/27 17:47:57;;;;;;;15.13;9.33;;;8.90;99.90;;;;;;5047339;28;20473;-88
2021/10/27 17:58:46;;;;;;;6.30;5.33;;;8.70;99.90;;;;;;5056543;28;20529;-89
2021/10/27 18:01:15;;;;;;;10.37;6.30;;;8.70;99.90;;;;;;5057275;28;20446;-90
2021/10/27 18:03:45;;;;;;;8.57;5.80;;;8.60;99.90;;;;;;5059381;28;20957;-89
2021/10/27 18:06:14;;;;;;;19.73;10.50;;;8.50;99.90;;;;;;5059461;28;20486;-90
2021/10/27 18:08:43;;;;;;;31.20;16.00;;;8.50;99.90;;;;;;5064459;28;20782;-89
2021/10/27 18:11:12;;;;;;;19.40;11.20;;;;;;;;;;5061244;28;20462;-89
2021/10/27 18:13:42;;;;;;;16.90;8.13;;;;;;;;;;5062479;28;20449;-88
2021/10/27 18:16:15;;;;;;;11.17;7.23;;;;;;;;;;5065128;28;20496;-88
2021/10/27 18:18:49;;;;;;;11.70;8.13;;;8.30;99.90;;;;;;5063804;28;20485;-88
2021/10/27 18:24:10;;;;;;;9.63;6.00;;;;;;;;;;5062367;28;20455;-89
2021/10/27 18:37:44;;;;;;;7.50;5.93;;;;;;;;;;5060813;28;20779;-89
2021/10/27 18:40:22;;;;;;;8.03;5.50;;;7.80;99.90;;;;;;5057432;28;20937;-88
2021/10/27 18:42:52;;;;;;;6.27;4.93;;;7.70;99.90;;;;;;5060821;28;20465;-87
2021/10/27 18:45:20;;;;;;;10.33;5.40;;;;;;;;;;5062451;28;20780;-90
2021/10/27 18:47:47;;;;;;;8.63;4.10;;;;;;;;;;5063536;28;20494;-87
2021/10/27 18:50:16;;;;;;;6.30;4.93;;;7.70;99.90;;;;;;5066859;28;20450;-89